createdAt,value
2023-03-12T00:01:34.455Z,11.37
2023-03-12T00:04:58.327Z,5.67
2023-03-12T00:08:20.115Z,8.13
2023-03-12T00:11:43.443Z,6.63
2023-03-12T00:15:06.507Z,10.83
2023-03-12T00:18:28.333Z,10.10
2023-03-12T00:21:55.293Z,5.17
2023-03-12T00:25:28.482Z,6.07
2023-03-12T00:28:51.789Z,5.97
2023-03-12T00:32:14.274Z,6.97
2023-03-12T00:35:38.620Z,5.87
2023-03-12T00:39:01.789Z,7.60
2023-03-12T00:42:23.693Z,5.33
2023-03-12T00:45:48.610Z,8.60
2023-03-12T00:49:11.695Z,5.47
2023-03-12T00:52:40.344Z,12.17
2023-03-12T00:56:04.746Z,7.13
2023-03-12T00:59:31.641Z,5.73
2023-03-12T01:02:55.785Z,5.83
2023-03-12T01:06:17.854Z,13.20
2023-03-12T01:09:39.702Z,9.43
2023-03-12T01:13:02.015Z,5.43
2023-03-12T01:16:28.085Z,7.87
2023-03-12T01:19:49.915Z,11.77
2023-03-12T01:23:11.813Z,8.07
2023-03-12T01:26:33.646Z,5.70
2023-03-12T01:29:55.865Z,6.37
2023-03-12T01:33:18.480Z,11.60
2023-03-12T01:36:42.388Z,10.30
2023-03-12T01:40:20.585Z,9.73
2023-03-12T01:43:43.064Z,11.67
2023-03-12T01:47:05.066Z,8.50
2023-03-12T01:50:26.959Z,7.30
2023-03-12T01:54:00.338Z,8.20
2023-03-12T01:57:34.375Z,7.57
2023-03-12T02:00:56.367Z,11.77
2023-03-12T02:04:26.446Z,7.80
2023-03-12T02:07:49.179Z,9.17
2023-03-12T02:11:12.046Z,10.27
2023-03-12T02:14:36.378Z,8.83
2023-03-12T02:17:59.393Z,8.23
2023-03-12T02:21:30.349Z,10.37
2023-03-12T02:25:30.270Z,11.87
2023-03-12T02:28:56.409Z,13.03
2023-03-12T02:32:26.478Z,7.37
2023-03-12T02:35:51.388Z,7.17
2023-03-12T02:39:13.590Z,11.60
2023-03-12T02:42:35.949Z,7.10
2023-03-12T02:45:59.023Z,9.73
2023-03-12T02:49:31.897Z,8.90
2023-03-12T02:52:54.632Z,7.37
2023-03-12T02:56:26.037Z,7.97
2023-03-12T02:59:48.309Z,5.83
2023-03-12T03:03:10.606Z,10.87
2023-03-12T03:06:37.847Z,8.07
2023-03-12T03:10:07.812Z,12.27
2023-03-12T03:13:33.582Z,8.53
2023-03-12T03:17:13.730Z,7.23
2023-03-12T03:20:39.734Z,11.00
2023-03-12T03:24:01.723Z,9.73
2023-03-12T03:27:23.513Z,12.23
2023-03-12T03:30:45.989Z,11.53
2023-03-12T03:34:08.170Z,15.03
2023-03-12T03:37:30.022Z,13.43
2023-03-12T03:40:55.129Z,7.27
2023-03-12T03:44:17.085Z,8.97
2023-03-12T03:47:39.026Z,11.13
2023-03-12T03:51:06.811Z,9.57
2023-03-12T03:54:31.074Z,9.57
2023-03-12T03:57:54.018Z,13.73
2023-03-12T04:01:16.040Z,10.77
2023-03-12T04:04:39.339Z,10.73
2023-03-12T04:08:03.239Z,15.07
2023-03-12T04:11:27.855Z,10.10
2023-03-12T04:14:53.164Z,9.60
2023-03-12T04:18:19.885Z,21.00
2023-03-12T04:21:43.496Z,10.63
2023-03-12T04:25:08.088Z,16.30
2023-03-12T04:28:30.886Z,17.10
2023-03-12T04:31:54.370Z,16.90
2023-03-12T04:35:16.923Z,16.30
2023-03-12T04:38:38.987Z,18.33
2023-03-12T04:42:02.649Z,18.63
2023-03-12T04:45:25.954Z,17.17
2023-03-12T04:48:48.043Z,14.40
2023-03-12T04:52:11.602Z,22.17
2023-03-12T04:55:33.585Z,17.67
2023-03-12T04:58:55.683Z,16.07
2023-03-12T05:02:19.652Z,15.27
2023-03-12T05:05:42.649Z,17.13
2023-03-12T05:09:05.301Z,16.50
2023-03-12T05:12:27.566Z,23.43
2023-03-12T05:15:51.371Z,14.93
2023-03-12T05:19:14.967Z,19.37
2023-03-12T05:22:37.886Z,14.70
2023-03-12T05:25:59.966Z,13.80
2023-03-12T05:29:23.343Z,14.60
2023-03-12T05:32:45.720Z,17.67
2023-03-12T05:36:10.095Z,17.30
2023-03-12T05:39:33.364Z,14.80
2023-03-12T05:42:59.386Z,18.33
2023-03-12T05:46:25.700Z,15.47
2023-03-12T05:49:47.872Z,20.57
2023-03-12T05:53:12.318Z,18.73
2023-03-12T05:56:37.184Z,19.87
2023-03-12T05:59:59.511Z,18.27
2023-03-12T06:03:22.523Z,16.13
2023-03-12T06:06:46.663Z,18.73
2023-03-12T06:10:10.235Z,18.63
2023-03-12T06:13:32.748Z,15.37
2023-03-12T06:16:54.706Z,17.40
2023-03-12T06:20:17.187Z,17.67
2023-03-12T06:23:40.647Z,19.23
2023-03-12T06:27:04.320Z,15.87
2023-03-12T06:30:27.542Z,18.90
2023-03-12T06:33:49.787Z,18.33
2023-03-12T06:37:11.970Z,21.60
2023-03-12T06:40:33.788Z,17.63
2023-03-12T06:43:55.708Z,17.13
2023-03-12T06:47:17.928Z,19.20
2023-03-12T06:50:39.716Z,16.37
2023-03-12T06:59:09.259Z,20.57
2023-03-12T07:02:31.251Z,17.23
2023-03-12T07:05:57.931Z,18.07
2023-03-12T07:09:21.012Z,18.07
2023-03-12T07:12:46.076Z,19.37
2023-03-12T07:16:14.327Z,19.00
2023-03-12T07:19:36.360Z,25.73
2023-03-12T07:23:00.097Z,45.37
2023-03-12T07:26:23.449Z,22.60
2023-03-12T07:29:48.020Z,22.57
2023-03-12T07:33:12.946Z,18.07
2023-03-12T07:36:34.968Z,20.70
2023-03-12T07:39:57.008Z,21.77
2023-03-12T07:43:21.563Z,18.87
2023-03-12T07:46:44.723Z,22.00
2023-03-12T07:50:08.294Z,17.07
2023-03-12T07:53:31.240Z,19.30
2023-03-12T07:56:53.104Z,19.37
2023-03-12T08:00:15.365Z,18.10
2023-03-12T08:03:38.811Z,18.97
2023-03-12T08:07:02.753Z,18.83
2023-03-12T08:10:24.781Z,21.47
2023-03-12T08:13:46.747Z,18.73
2023-03-12T08:17:09.525Z,17.90
2023-03-12T08:20:31.537Z,19.40
2023-03-12T08:23:53.417Z,18.83
2023-03-12T08:27:16.378Z,21.40
2023-03-12T08:30:40.232Z,24.37
2023-03-12T08:34:02.073Z,18.20
2023-03-12T08:37:23.928Z,21.23
2023-03-12T08:41:00.660Z,16.83
2023-03-12T08:44:26.975Z,24.03
2023-03-12T08:47:50.230Z,22.27
2023-03-12T08:51:12.173Z,19.50
2023-03-12T08:54:34.105Z,19.83
2023-03-12T08:57:56.701Z,16.50
2023-03-12T09:01:18.613Z,17.67
2023-03-12T09:04:40.636Z,18.80
2023-03-12T09:08:02.597Z,17.33
2023-03-12T09:11:24.460Z,16.80
2023-03-12T09:15:03.754Z,14.13
2023-03-12T09:18:26.321Z,15.20
2023-03-12T09:21:48.190Z,15.00
2023-03-12T09:25:11.345Z,25.37
2023-03-12T09:28:35.195Z,20.40
2023-03-12T09:31:57.473Z,21.83
2023-03-12T09:35:19.477Z,14.73
2023-03-12T09:38:42.371Z,20.40
2023-03-12T09:42:20.458Z,22.53
2023-03-12T09:45:47.229Z,30.93
2023-03-12T09:49:46.513Z,21.80
2023-03-12T09:53:27.382Z,17.17
2023-03-12T09:56:52.530Z,21.55
2023-03-12T10:00:21.795Z,22.67
2023-03-12T10:04:27.263Z,31.50
2023-03-12T10:08:07.561Z,32.00
2023-03-12T10:12:02.356Z,173.07
2023-03-12T10:15:51.228Z,32.22
2023-03-12T10:19:37.440Z,37.08
2023-03-12T10:23:16.679Z,34.03
2023-03-12T10:26:49.223Z,20.80
2023-03-12T10:30:28.691Z,28.08
2023-03-12T10:34:03.337Z,24.75
2023-03-12T10:37:38.282Z,20.27
2023-03-12T10:41:01.156Z,15.90
2023-03-12T10:44:25.498Z,19.27
2023-03-12T10:47:57.211Z,19.10
2023-03-12T10:51:19.153Z,14.35
2023-03-12T10:54:46.906Z,19.75
2023-03-12T10:58:24.070Z,24.05
2023-03-12T11:01:51.441Z,17.83
2023-03-12T11:05:29.577Z,23.83
2023-03-12T11:09:17.041Z,17.85
2023-03-12T11:13:05.551Z,21.83
2023-03-12T11:16:31.964Z,31.88
2023-03-12T11:19:54.783Z,18.45
2023-03-12T11:23:24.079Z,15.27
2023-03-12T11:27:42.535Z,21.02
2023-03-12T11:31:15.596Z,13.20
2023-03-12T11:34:39.828Z,19.00
2023-03-12T11:38:24.404Z,31.52
2023-03-12T11:42:13.547Z,38.85
2023-03-12T11:46:16.390Z,324.38
2023-03-12T11:49:59.714Z,73.90
2023-03-12T11:53:51.820Z,22.02
2023-03-12T11:57:13.692Z,30.42
2023-03-12T12:00:54.911Z,25.15
2023-03-12T12:04:51.683Z,40.72
2023-03-12T12:08:19.471Z,27.95
2023-03-12T12:11:51.052Z,147.85
2023-03-12T12:15:39.080Z,31.30
2023-03-12T12:19:48.014Z,22.95
2023-03-12T12:23:41.810Z,27.60
2023-03-12T12:27:24.492Z,15.20
2023-03-12T12:31:30.227Z,18.85
2023-03-12T12:35:14.261Z,19.80
2023-03-12T12:38:44.263Z,27.75
2023-03-12T12:42:20.943Z,18.92
2023-03-12T12:45:48.507Z,25.35
2023-03-12T12:49:19.545Z,24.55
2023-03-12T12:52:42.386Z,23.83
2023-03-12T12:56:18.302Z,22.02
2023-03-12T13:00:04.775Z,18.60
2023-03-12T13:03:30.463Z,25.60
2023-03-12T13:07:25.830Z,24.17
2023-03-12T13:10:57.876Z,19.27
2023-03-12T13:14:40.646Z,23.75
2023-03-12T13:18:29.037Z,15.32
2023-03-12T13:22:37.686Z,21.90
2023-03-12T13:26:40.578Z,27.88
2023-03-12T13:30:46.995Z,26.38
2023-03-12T13:34:17.822Z,33.67
2023-03-12T13:38:01.025Z,24.73
2023-03-12T13:41:40.961Z,19.23
2023-03-12T13:45:26.106Z,25.40
2023-03-12T13:48:50.150Z,21.45
2023-03-12T13:52:25.846Z,35.88
2023-03-12T13:56:29.021Z,60.88
2023-03-12T13:59:52.735Z,776.20
2023-03-12T14:03:24.924Z,1999.90
2023-03-12T14:07:38.457Z,1158.57
2023-03-12T14:11:42.916Z,1999.90
2023-03-12T14:15:23.693Z,1307.72
2023-03-12T14:18:47.438Z,1555.38
2023-03-12T14:22:13.862Z,165.40
2023-03-12T14:25:41.861Z,35.28
2023-03-12T14:29:15.180Z,26.20
2023-03-12T14:32:38.741Z,30.73
2023-03-12T14:36:16.808Z,21.52
2023-03-12T14:40:18.362Z,15.68
2023-03-12T14:43:43.351Z,21.90
2023-03-12T14:47:17.421Z,15.73
2023-03-12T14:50:41.173Z,23.30
2023-03-12T14:54:04.199Z,21.83
2023-03-12T14:57:26.816Z,19.83
2023-03-12T15:01:06.687Z,15.38
2023-03-12T15:04:33.391Z,25.95
2023-03-12T15:08:18.166Z,16.80
2023-03-12T15:11:41.141Z,14.45
2023-03-12T15:15:28.447Z,17.95
2023-03-12T15:18:51.266Z,20.58
2023-03-12T15:22:27.713Z,27.70
2023-03-12T15:26:28.524Z,17.48
2023-03-12T15:29:52.752Z,16.27
2023-03-12T15:33:18.911Z,22.45
2023-03-12T15:36:49.814Z,19.50
2023-03-12T15:40:21.794Z,12.18
2023-03-12T15:43:52.845Z,13.30
2023-03-12T15:47:25.737Z,17.23
2023-03-12T15:50:47.794Z,17.63
2023-03-12T15:54:18.684Z,16.70
2023-03-12T15:57:53.672Z,11.95
2023-03-12T16:01:23.872Z,22.67
2023-03-12T16:04:45.738Z,16.27
2023-03-12T16:08:20.731Z,16.15
2023-03-12T16:11:43.213Z,16.33
2023-03-12T16:15:06.776Z,22.50
2023-03-12T16:18:28.592Z,16.38
2023-03-12T16:21:51.406Z,14.75
2023-03-12T16:25:14.368Z,16.75
2023-03-12T16:28:37.238Z,17.95
2023-03-12T16:32:00.085Z,19.83
2023-03-12T16:35:31.829Z,18.67
2023-03-12T16:38:54.701Z,12.10
2023-03-12T16:42:19.435Z,18.67
2023-03-12T16:45:45.473Z,18.58
2023-03-12T16:49:18.035Z,18.05
2023-03-12T16:52:41.113Z,22.15
2023-03-12T16:56:06.596Z,272.67
2023-03-12T16:59:38.038Z,39.78
2023-03-12T17:03:06.461Z,24.23
2023-03-12T17:06:29.330Z,263.98
2023-03-12T17:09:52.465Z,74.78
2023-03-12T17:13:26.027Z,1187.43
2023-03-12T17:16:54.220Z,1999.90
2023-03-12T17:20:21.544Z,1637.38
2023-03-12T17:23:46.692Z,1999.90
2023-03-12T17:27:08.803Z,1999.90
2023-03-12T17:30:32.071Z,1999.90
2023-03-12T17:33:53.915Z,1999.90
2023-03-12T17:37:15.746Z,1390.30
2023-03-12T17:40:42.936Z,1999.90
2023-03-12T17:44:06.968Z,441.55
2023-03-12T17:47:30.980Z,1999.90
2023-03-12T17:50:55.029Z,1999.90
2023-03-12T17:54:18.918Z,1287.53
2023-03-12T17:57:40.992Z,1999.90
2023-03-12T18:01:04.042Z,1999.90
2023-03-12T18:04:25.969Z,1999.90
2023-03-12T18:07:50.383Z,1999.90
2023-03-12T18:11:14.385Z,1999.90
2023-03-12T18:14:36.347Z,1999.90
2023-03-12T18:17:58.709Z,1999.90
2023-03-12T18:21:20.549Z,1999.90
2023-03-12T18:24:43.435Z,1999.90
2023-03-12T18:28:05.743Z,1999.90
2023-03-12T18:31:28.657Z,1143.18
2023-03-12T18:34:53.092Z,1647.22
2023-03-12T18:38:16.088Z,1703.35
2023-03-12T18:41:39.846Z,1371.45
2023-03-12T18:45:02.810Z,1999.90
2023-03-12T18:48:25.712Z,1999.90
2023-03-12T18:51:53.281Z,1999.90
2023-03-12T18:55:15.646Z,1999.90
2023-03-12T18:58:37.865Z,1999.90
2023-03-12T19:02:00.065Z,1300.97
2023-03-12T19:05:21.927Z,1999.90
2023-03-12T19:08:44.278Z,1999.90
2023-03-12T19:12:06.324Z,1999.90
2023-03-12T19:15:28.335Z,511.98
2023-03-12T19:18:50.983Z,23.05
2023-03-12T19:22:12.770Z,23.60
2023-03-12T19:25:34.574Z,17.58
2023-03-12T19:29:02.185Z,17.33
2023-03-12T19:32:27.710Z,17.67
2023-03-12T19:35:57.402Z,16.13
2023-03-12T19:39:21.560Z,15.48
2023-03-12T19:42:43.530Z,21.17
2023-03-12T19:46:05.563Z,17.10
2023-03-12T19:49:27.399Z,16.42
2023-03-12T19:52:49.222Z,18.40
2023-03-12T19:56:11.076Z,16.70
2023-03-12T19:59:32.872Z,27.48
2023-03-12T20:02:54.827Z,16.38
2023-03-12T20:06:16.783Z,15.18
2023-03-12T20:09:38.785Z,18.88
2023-03-12T20:13:00.677Z,21.95
2023-03-12T20:16:22.729Z,14.88
2023-03-12T20:19:44.697Z,29.08
2023-03-12T20:23:08.429Z,20.58
2023-03-12T20:26:30.518Z,20.35
2023-03-12T20:29:52.450Z,18.05
2023-03-12T20:33:14.878Z,11.43
2023-03-12T20:36:37.781Z,19.95
2023-03-12T20:40:02.680Z,21.48
2023-03-12T20:43:24.607Z,21.65
2023-03-12T20:46:47.894Z,28.08
2023-03-12T20:50:10.730Z,19.65
2023-03-12T20:53:32.607Z,17.33
2023-03-12T20:56:54.370Z,19.08
2023-03-12T21:00:16.778Z,19.98
2023-03-12T21:03:38.580Z,27.27
2023-03-12T21:07:00.541Z,29.27
2023-03-12T21:10:22.322Z,20.42
2023-03-12T21:13:44.165Z,18.87
2023-03-12T21:17:06.001Z,20.80
2023-03-12T21:20:27.965Z,17.20
2023-03-12T21:23:49.871Z,19.25
2023-03-12T21:27:12.905Z,21.13
2023-03-12T21:30:35.004Z,15.43
2023-03-12T21:33:58.141Z,20.95
2023-03-12T21:37:20.124Z,20.15
2023-03-12T21:40:41.932Z,34.17
2023-03-12T21:44:04.938Z,22.52
2023-03-12T21:47:26.936Z,24.95
2023-03-12T21:50:48.752Z,20.77
2023-03-12T21:54:11.155Z,24.00
2023-03-12T21:57:33.268Z,22.08
2023-03-12T22:01:13.310Z,18.92
2023-03-12T22:04:35.229Z,20.65
2023-03-12T22:07:57.060Z,14.25
2023-03-12T22:11:19.133Z,21.83
2023-03-12T22:14:40.937Z,23.35
2023-03-12T22:18:02.798Z,12.93
2023-03-12T22:21:25.313Z,16.67
2023-03-12T22:24:47.155Z,19.15
2023-03-12T22:28:09.171Z,17.60
2023-03-12T22:31:31.147Z,19.05
2023-03-12T22:34:53.010Z,22.95
2023-03-12T22:38:15.443Z,23.17
2023-03-12T22:41:37.238Z,20.48
2023-03-12T22:44:59.159Z,21.63
2023-03-12T22:48:20.996Z,12.73
2023-03-12T22:51:42.794Z,13.55
2023-03-12T22:55:07.297Z,20.55
2023-03-12T22:58:29.943Z,25.23
2023-03-12T23:01:53.850Z,18.83
2023-03-12T23:05:15.726Z,22.50
2023-03-12T23:08:37.970Z,15.43
2023-03-12T23:12:03.961Z,15.50
2023-03-12T23:15:31.966Z,13.55
2023-03-12T23:19:02.195Z,19.05
2023-03-12T23:22:26.643Z,9.35
2023-03-12T23:25:57.420Z,14.00
2023-03-12T23:29:19.273Z,14.95
2023-03-12T23:32:41.261Z,20.77
2023-03-12T23:36:12.168Z,21.15
2023-03-12T23:39:42.083Z,24.65
2023-03-12T23:43:10.236Z,15.45
2023-03-12T23:46:34.355Z,14.10
2023-03-12T23:49:56.148Z,13.90
2023-03-12T23:53:18.003Z,17.00
2023-03-12T23:56:42.457Z,17.30
